sensor_id;sensor_type;location;lat;lon;timestamp;temperature;humidity
60701;DHT22;46541;49.894;10.886;2023-08-21T00:01:38;25.40;99.90
60701;DHT22;46541;49.894;10.886;2023-08-21T00:04:05;25.40;99.90
60701;DHT22;46541;49.894;10.886;2023-08-21T00:06:32;25.40;99.90
60701;DHT22;46541;49.894;10.886;2023-08-21T00:08:59;25.40;99.90
60701;DHT22;46541;49.894;10.886;2023-08-21T00:11:26;25.30;99.90
60701;DHT22;46541;49.894;10.886;2023-08-21T00:13:53;25.30;99.90
60701;DHT22;46541;49.894;10.886;2023-08-21T00:16:20;25.30;99.90
60701;DHT22;46541;49.894;10.886;2023-08-21T00:18:47;25.30;99.90
60701;DHT22;46541;49.894;10.886;2023-08-21T00:21:13;25.30;99.90
60701;DHT22;46541;49.894;10.886;2023-08-21T00:23:40;25.30;99.90
60701;DHT22;46541;49.894;10.886;2023-08-21T00:26:07;25.20;99.90
60701;DHT22;46541;49.894;10.886;2023-08-21T00:28:33;25.20;99.90
60701;DHT22;46541;49.894;10.886;2023-08-21T00:31:05;25.20;99.90
60701;DHT22;46541;49.894;10.886;2023-08-21T00:33:32;25.20;99.90
60701;DHT22;46541;49.894;10.886;2023-08-21T00:36:00;25.10;99.90
60701;DHT22;46541;49.894;10.886;2023-08-21T00:38:26;25.20;99.90
60701;DHT22;46541;49.894;10.886;2023-08-21T00:40:53;25.10;99.90
60701;DHT22;46541;49.894;10.886;2023-08-21T00:43:20;25.10;99.90
60701;DHT22;46541;49.894;10.886;2023-08-21T00:45:48;25.10;99.90
60701;DHT22;46541;49.894;10.886;2023-08-21T00:48:16;25.10;99.90
60701;DHT22;46541;49.894;10.886;2023-08-21T00:50:44;25.10;99.90
60701;DHT22;46541;49.894;10.886;2023-08-21T00:53:11;25.00;99.90
60701;DHT22;46541;49.894;10.886;2023-08-21T00:55:40;25.00;99.90
60701;DHT22;46541;49.894;10.886;2023-08-21T00:58:12;25.00;99.90
60701;DHT22;46541;49.894;10.886;2023-08-21T01:00:41;25.00;99.90
60701;DHT22;46541;49.894;10.886;2023-08-21T01:03:08;25.00;99.90
60701;DHT22;46541;49.894;10.886;2023-08-21T01:05:35;25.00;99.90
60701;DHT22;46541;49.894;10.886;2023-08-21T01:08:06;25.00;99.90
60701;DHT22;46541;49.894;10.886;2023-08-21T01:10:50;25.00;99.90
60701;DHT22;46541;49.894;10.886;2023-08-21T01:16:05;24.90;99.90
60701;DHT22;46541;49.894;10.886;2023-08-21T01:18:34;24.90;99.90
60701;DHT22;46541;49.894;10.886;2023-08-21T01:21:02;24.80;99.90
60701;DHT22;46541;49.894;10.886;2023-08-21T01:23:35;24.90;99.90
60701;DHT22;46541;49.894;10.886;2023-08-21T01:26:04;24.80;99.90
60701;DHT22;46541;49.894;10.886;2023-08-21T01:28:33;24.80;99.90
60701;DHT22;46541;49.894;10.886;2023-08-21T01:31:05;24.80;99.90
60701;DHT22;46541;49.894;10.886;2023-08-21T01:33:37;24.80;99.90
60701;DHT22;46541;49.894;10.886;2023-08-21T01:36:06;24.80;99.90
60701;DHT22;46541;49.894;10.886;2023-08-21T01:38:33;24.80;99.90
60701;DHT22;46541;49.894;10.886;2023-08-21T01:41:02;24.70;99.90
60701;DHT22;46541;49.894;10.886;2023-08-21T01:43:29;24.80;99.90
60701;DHT22;46541;49.894;10.886;2023-08-21T01:45:56;24.70;99.90
60701;DHT22;46541;49.894;10.886;2023-08-21T01:48:23;24.70;99.90
60701;DHT22;46541;49.894;10.886;2023-08-21T01:50:49;24.70;99.90
60701;DHT22;46541;49.894;10.886;2023-08-21T01:53:16;24.70;99.90
60701;DHT22;46541;49.894;10.886;2023-08-21T01:55:43;24.60;99.90
60701;DHT22;46541;49.894;10.886;2023-08-21T01:58:10;24.60;99.90
60701;DHT22;46541;49.894;10.886;2023-08-21T02:00:36;24.60;99.90
60701;DHT22;46541;49.894;10.886;2023-08-21T02:03:04;24.60;99.90
60701;DHT22;46541;49.894;10.886;2023-08-21T02:05:37;24.50;99.90
60701;DHT22;46541;49.894;10.886;2023-08-21T02:08:04;24.50;99.90
60701;DHT22;46541;49.894;10.886;2023-08-21T02:10:31;24.50;99.90
60701;DHT22;46541;49.894;10.886;2023-08-21T02:12:58;24.50;99.90
60701;DHT22;46541;49.894;10.886;2023-08-21T02:15:24;24.40;99.90
60701;DHT22;46541;49.894;10.886;2023-08-21T02:17:51;24.40;99.90
60701;DHT22;46541;49.894;10.886;2023-08-21T02:20:18;24.40;99.90
60701;DHT22;46541;49.894;10.886;2023-08-21T02:22:45;24.40;99.90
60701;DHT22;46541;49.894;10.886;2023-08-21T02:25:12;24.40;99.90
60701;DHT22;46541;49.894;10.886;2023-08-21T02:27:38;24.40;99.90
60701;DHT22;46541;49.894;10.886;2023-08-21T02:30:05;24.40;99.90
60701;DHT22;46541;49.894;10.886;2023-08-21T02:32:33;24.30;99.90
60701;DHT22;46541;49.894;10.886;2023-08-21T02:35:01;24.30;99.90
60701;DHT22;46541;49.894;10.886;2023-08-21T02:37:28;24.30;99.90
60701;DHT22;46541;49.894;10.886;2023-08-21T02:39:55;24.30;99.90
60701;DHT22;46541;49.894;10.886;2023-08-21T02:42:22;24.30;99.90
60701;DHT22;46541;49.894;10.886;2023-08-21T02:44:48;24.20;99.90
60701;DHT22;46541;49.894;10.886;2023-08-21T02:47:15;24.20;99.90
60701;DHT22;46541;49.894;10.886;2023-08-21T02:49:42;24.20;99.90
60701;DHT22;46541;49.894;10.886;2023-08-21T02:52:09;24.20;99.90
60701;DHT22;46541;49.894;10.886;2023-08-21T02:54:35;24.20;99.90
60701;DHT22;46541;49.894;10.886;2023-08-21T02:57:02;24.20;99.90
60701;DHT22;46541;49.894;10.886;2023-08-21T02:59:29;24.20;99.90
60701;DHT22;46541;49.894;10.886;2023-08-21T03:01:55;24.20;99.90
60701;DHT22;46541;49.894;10.886;2023-08-21T03:04:22;24.20;99.90
60701;DHT22;46541;49.894;10.886;2023-08-21T03:06:49;24.20;99.90
60701;DHT22;46541;49.894;10.886;2023-08-21T03:09:16;24.10;99.90
60701;DHT22;46541;49.894;10.886;2023-08-21T03:11:43;24.20;99.90
60701;DHT22;46541;49.894;10.886;2023-08-21T03:14:09;24.10;99.90
60701;DHT22;46541;49.894;10.886;2023-08-21T03:16:36;24.10;99.90
60701;DHT22;46541;49.894;10.886;2023-08-21T03:19:03;24.10;99.90
60701;DHT22;46541;49.894;10.886;2023-08-21T03:21:30;24.10;99.90
60701;DHT22;46541;49.894;10.886;2023-08-21T03:23:58;24.00;99.90
60701;DHT22;46541;49.894;10.886;2023-08-21T03:26:30;24.00;99.90
60701;DHT22;46541;49.894;10.886;2023-08-21T03:28:56;24.00;99.90
60701;DHT22;46541;49.894;10.886;2023-08-21T03:31:23;24.00;99.90
60701;DHT22;46541;49.894;10.886;2023-08-21T03:33:50;24.00;99.90
60701;DHT22;46541;49.894;10.886;2023-08-21T03:36:17;24.00;99.90
60701;DHT22;46541;49.894;10.886;2023-08-21T03:38:44;24.00;99.90
60701;DHT22;46541;49.894;10.886;2023-08-21T03:41:11;23.90;99.90
60701;DHT22;46541;49.894;10.886;2023-08-21T03:43:38;23.90;99.90
60701;DHT22;46541;49.894;10.886;2023-08-21T03:46:04;23.90;99.90
60701;DHT22;46541;49.894;10.886;2023-08-21T03:48:31;23.90;99.90
60701;DHT22;46541;49.894;10.886;2023-08-21T03:50:58;23.80;99.90
60701;DHT22;46541;49.894;10.886;2023-08-21T03:53:25;23.80;99.90
60701;DHT22;46541;49.894;10.886;2023-08-21T03:55:52;23.80;99.90
60701;DHT22;46541;49.894;10.886;2023-08-21T03:58:19;23.70;99.90
60701;DHT22;46541;49.894;10.886;2023-08-21T04:00:46;23.70;99.90
60701;DHT22;46541;49.894;10.886;2023-08-21T04:03:13;23.70;99.90
60701;DHT22;46541;49.894;10.886;2023-08-21T04:05:39;23.70;99.90
60701;DHT22;46541;49.894;10.886;2023-08-21T04:08:06;23.70;99.90
60701;DHT22;46541;49.894;10.886;2023-08-21T04:10:33;23.60;99.90
60701;DHT22;46541;49.894;10.886;2023-08-21T04:13:00;23.60;99.90
60701;DHT22;46541;49.894;10.886;2023-08-21T04:15:29;23.60;99.90
60701;DHT22;46541;49.894;10.886;2023-08-21T04:17:56;23.60;99.90
60701;DHT22;46541;49.894;10.886;2023-08-21T04:20:23;23.60;99.90
60701;DHT22;46541;49.894;10.886;2023-08-21T04:22:50;23.60;99.90
60701;DHT22;46541;49.894;10.886;2023-08-21T04:25:17;23.60;99.90
60701;DHT22;46541;49.894;10.886;2023-08-21T04:27:44;23.60;99.90
60701;DHT22;46541;49.894;10.886;2023-08-21T04:30:11;23.60;99.90
60701;DHT22;46541;49.894;10.886;2023-08-21T04:32:38;23.60;99.90
60701;DHT22;46541;49.894;10.886;2023-08-21T04:35:06;23.60;99.90
60701;DHT22;46541;49.894;10.886;2023-08-21T04:37:37;23.60;99.90
60701;DHT22;46541;49.894;10.886;2023-08-21T04:40:04;23.60;99.90
60701;DHT22;46541;49.894;10.886;2023-08-21T04:42:31;23.60;99.90
60701;DHT22;46541;49.894;10.886;2023-08-21T04:44:58;23.60;99.90
60701;DHT22;46541;49.894;10.886;2023-08-21T04:47:26;23.60;99.90
60701;DHT22;46541;49.894;10.886;2023-08-21T04:49:53;23.60;99.90
60701;DHT22;46541;49.894;10.886;2023-08-21T04:52:21;23.50;99.90
60701;DHT22;46541;49.894;10.886;2023-08-21T04:54:49;23.60;99.90
60701;DHT22;46541;49.894;10.886;2023-08-21T04:57:16;23.60;99.90
60701;DHT22;46541;49.894;10.886;2023-08-21T04:59:43;23.50;99.90
60701;DHT22;46541;49.894;10.886;2023-08-21T05:02:10;23.60;99.90
60701;DHT22;46541;49.894;10.886;2023-08-21T05:04:37;23.50;99.90
60701;DHT22;46541;49.894;10.886;2023-08-21T05:07:05;23.30;99.90
60701;DHT22;46541;49.894;10.886;2023-08-21T05:09:32;23.30;99.90
60701;DHT22;46541;49.894;10.886;2023-08-21T05:11:59;23.30;99.90
60701;DHT22;46541;49.894;10.886;2023-08-21T05:14:25;23.20;99.90
60701;DHT22;46541;49.894;10.886;2023-08-21T05:16:52;23.20;99.90
60701;DHT22;46541;49.894;10.886;2023-08-21T05:19:19;23.20;99.90
60701;DHT22;46541;49.894;10.886;2023-08-21T05:21:46;23.10;99.90
60701;DHT22;46541;49.894;10.886;2023-08-21T05:24:12;23.10;99.90
60701;DHT22;46541;49.894;10.886;2023-08-21T05:26:39;23.10;99.90
60701;DHT22;46541;49.894;10.886;2023-08-21T05:29:06;23.10;99.90
60701;DHT22;46541;49.894;10.886;2023-08-21T05:31:32;23.10;99.90
60701;DHT22;46541;49.894;10.886;2023-08-21T05:34:00;23.10;99.90
60701;DHT22;46541;49.894;10.886;2023-08-21T05:36:26;23.20;99.90
60701;DHT22;46541;49.894;10.886;2023-08-21T05:38:53;23.20;99.90
60701;DHT22;46541;49.894;10.886;2023-08-21T05:41:20;23.20;99.90
60701;DHT22;46541;49.894;10.886;2023-08-21T05:43:47;23.20;99.90
60701;DHT22;46541;49.894;10.886;2023-08-21T05:46:14;23.30;99.90
60701;DHT22;46541;49.894;10.886;2023-08-21T05:48:41;23.30;99.90
60701;DHT22;46541;49.894;10.886;2023-08-21T05:51:07;23.30;99.90
60701;DHT22;46541;49.894;10.886;2023-08-21T05:53:34;23.30;99.90
60701;DHT22;46541;49.894;10.886;2023-08-21T05:56:01;23.30;99.90
60701;DHT22;46541;49.894;10.886;2023-08-21T05:58:28;23.40;99.90
60701;DHT22;46541;49.894;10.886;2023-08-21T06:00:57;23.40;99.90
60701;DHT22;46541;49.894;10.886;2023-08-21T06:03:24;23.50;99.90
60701;DHT22;46541;49.894;10.886;2023-08-21T06:05:51;23.50;99.90
60701;DHT22;46541;49.894;10.886;2023-08-21T06:08:18;23.70;99.90
60701;DHT22;46541;49.894;10.886;2023-08-21T06:10:44;23.80;99.90
60701;DHT22;46541;49.894;10.886;2023-08-21T06:13:11;23.80;99.90
60701;DHT22;46541;49.894;10.886;2023-08-21T06:15:38;24.00;99.90
60701;DHT22;46541;49.894;10.886;2023-08-21T06:18:04;24.10;99.90
60701;DHT22;46541;49.894;10.886;2023-08-21T06:20:31;24.20;99.90
60701;DHT22;46541;49.894;10.886;2023-08-21T06:22:58;24.30;99.90
60701;DHT22;46541;49.894;10.886;2023-08-21T06:25:25;24.40;99.90
60701;DHT22;46541;49.894;10.886;2023-08-21T06:27:52;24.50;99.90
60701;DHT22;46541;49.894;10.886;2023-08-21T06:30:26;24.60;99.90
60701;DHT22;46541;49.894;10.886;2023-08-21T06:32:54;24.60;99.90
60701;DHT22;46541;49.894;10.886;2023-08-21T06:35:21;24.80;99.90
60701;DHT22;46541;49.894;10.886;2023-08-21T06:37:48;24.80;99.90
60701;DHT22;46541;49.894;10.886;2023-08-21T06:40:14;24.90;99.90
60701;DHT22;46541;49.894;10.886;2023-08-21T06:42:41;25.00;99.90
60701;DHT22;46541;49.894;10.886;2023-08-21T06:45:08;25.20;99.90
60701;DHT22;46541;49.894;10.886;2023-08-21T06:47:35;25.30;99.90
60701;DHT22;46541;49.894;10.886;2023-08-21T06:50:02;25.40;99.90
60701;DHT22;46541;49.894;10.886;2023-08-21T06:52:29;25.40;99.90
60701;DHT22;46541;49.894;10.886;2023-08-21T06:54:55;25.50;99.90
60701;DHT22;46541;49.894;10.886;2023-08-21T06:57:23;25.60;99.90
60701;DHT22;46541;49.894;10.886;2023-08-21T06:59:49;25.60;99.90
60701;DHT22;46541;49.894;10.886;2023-08-21T07:02:16;25.80;99.90
60701;DHT22;46541;49.894;10.886;2023-08-21T07:04:43;25.80;99.90
60701;DHT22;46541;49.894;10.886;2023-08-21T07:07:10;25.90;99.90
60701;DHT22;46541;49.894;10.886;2023-08-21T07:09:36;25.90;99.90
60701;DHT22;46541;49.894;10.886;2023-08-21T07:12:03;26.00;99.90
60701;DHT22;46541;49.894;10.886;2023-08-21T07:14:30;26.10;99.90
60701;DHT22;46541;49.894;10.886;2023-08-21T07:16:57;26.20;99.90
60701;DHT22;46541;49.894;10.886;2023-08-21T07:19:24;26.40;99.90
60701;DHT22;46541;49.894;10.886;2023-08-21T07:21:51;26.40;99.90
60701;DHT22;46541;49.894;10.886;2023-08-21T07:24:17;26.50;99.90
60701;DHT22;46541;49.894;10.886;2023-08-21T07:26:44;26.60;99.90
60701;DHT22;46541;49.894;10.886;2023-08-21T07:29:11;26.70;99.90
60701;DHT22;46541;49.894;10.886;2023-08-21T07:31:38;26.90;99.90
60701;DHT22;46541;49.894;10.886;2023-08-21T07:34:05;27.00;99.90
60701;DHT22;46541;49.894;10.886;2023-08-21T07:36:32;27.30;99.90
60701;DHT22;46541;49.894;10.886;2023-08-21T07:38:59;27.40;99.90
60701;DHT22;46541;49.894;10.886;2023-08-21T07:41:25;27.60;99.90
60701;DHT22;46541;49.894;10.886;2023-08-21T07:43:53;27.60;99.90
60701;DHT22;46541;49.894;10.886;2023-08-21T07:46:20;27.70;99.90
60701;DHT22;46541;49.894;10.886;2023-08-21T07:48:47;27.80;99.90
60701;DHT22;46541;49.894;10.886;2023-08-21T07:51:14;27.90;99.90
60701;DHT22;46541;49.894;10.886;2023-08-21T07:53:41;28.00;99.90
60701;DHT22;46541;49.894;10.886;2023-08-21T07:56:07;28.20;99.90
60701;DHT22;46541;49.894;10.886;2023-08-21T07:58:34;28.30;99.90
60701;DHT22;46541;49.894;10.886;2023-08-21T08:01:01;28.40;99.90
60701;DHT22;46541;49.894;10.886;2023-08-21T08:03:28;28.60;99.90
60701;DHT22;46541;49.894;10.886;2023-08-21T08:05:55;28.60;99.90
60701;DHT22;46541;49.894;10.886;2023-08-21T08:08:22;28.70;99.90
60701;DHT22;46541;49.894;10.886;2023-08-21T08:10:49;28.70;99.90
60701;DHT22;46541;49.894;10.886;2023-08-21T08:13:16;28.80;99.90
60701;DHT22;46541;49.894;10.886;2023-08-21T08:15:43;28.90;99.90
60701;DHT22;46541;49.894;10.886;2023-08-21T08:18:13;28.90;99.90
60701;DHT22;46541;49.894;10.886;2023-08-21T08:20:40;29.00;99.90
60701;DHT22;46541;49.894;10.886;2023-08-21T08:23:07;29.10;99.90
60701;DHT22;46541;49.894;10.886;2023-08-21T08:25:34;29.20;99.90
60701;DHT22;46541;49.894;10.886;2023-08-21T08:28:02;29.30;99.90
60701;DHT22;46541;49.894;10.886;2023-08-21T08:30:29;29.30;99.90
60701;DHT22;46541;49.894;10.886;2023-08-21T08:32:56;29.30;99.90
60701;DHT22;46541;49.894;10.886;2023-08-21T08:35:23;29.50;99.90
60701;DHT22;46541;49.894;10.886;2023-08-21T08:37:49;29.60;99.90
60701;DHT22;46541;49.894;10.886;2023-08-21T08:40:16;29.60;99.90
60701;DHT22;46541;49.894;10.886;2023-08-21T08:42:43;29.70;99.90
60701;DHT22;46541;49.894;10.886;2023-08-21T08:45:12;29.70;99.90
60701;DHT22;46541;49.894;10.886;2023-08-21T08:47:40;29.90;99.90
60701;DHT22;46541;49.894;10.886;2023-08-21T08:50:08;29.90;99.90
60701;DHT22;46541;49.894;10.886;2023-08-21T08:52:38;30.00;99.90
60701;DHT22;46541;49.894;10.886;2023-08-21T08:55:06;30.20;99.90
60701;DHT22;46541;49.894;10.886;2023-08-21T08:57:33;30.40;99.90
60701;DHT22;46541;49.894;10.886;2023-08-21T09:00:04;30.60;99.90
60701;DHT22;46541;49.894;10.886;2023-08-21T09:02:31;30.70;99.90
60701;DHT22;46541;49.894;10.886;2023-08-21T09:04:59;30.70;99.90
60701;DHT22;46541;49.894;10.886;2023-08-21T09:07:26;30.80;99.90
60701;DHT22;46541;49.894;10.886;2023-08-21T09:09:52;30.80;99.90
60701;DHT22;46541;49.894;10.886;2023-08-21T09:12:20;31.00;99.90
60701;DHT22;46541;49.894;10.886;2023-08-21T09:14:47;31.10;99.90
60701;DHT22;46541;49.894;10.886;2023-08-21T09:17:14;31.10;99.90
60701;DHT22;46541;49.894;10.886;2023-08-21T09:19:42;31.30;99.90
60701;DHT22;46541;49.894;10.886;2023-08-21T09:22:12;31.50;99.90
60701;DHT22;46541;49.894;10.886;2023-08-21T09:24:40;31.40;99.90
60701;DHT22;46541;49.894;10.886;2023-08-21T09:27:16;31.50;99.90
60701;DHT22;46541;49.894;10.886;2023-08-21T09:29:44;31.60;99.90
60701;DHT22;46541;49.894;10.886;2023-08-21T09:32:12;31.80;99.90
60701;DHT22;46541;49.894;10.886;2023-08-21T09:34:39;31.90;99.90
60701;DHT22;46541;49.894;10.886;2023-08-21T09:37:07;31.90;99.90
60701;DHT22;46541;49.894;10.886;2023-08-21T09:39:35;32.20;99.90
60701;DHT22;46541;49.894;10.886;2023-08-21T09:42:09;32.40;99.90
60701;DHT22;46541;49.894;10.886;2023-08-21T09:44:39;32.50;99.90
60701;DHT22;46541;49.894;10.886;2023-08-21T09:47:08;32.60;99.30
60701;DHT22;46541;49.894;10.886;2023-08-21T09:49:36;32.60;99.40
60701;DHT22;46541;49.894;10.886;2023-08-21T09:52:06;32.70;96.40
60701;DHT22;46541;49.894;10.886;2023-08-21T09:54:38;32.80;96.50
60701;DHT22;46541;49.894;10.886;2023-08-21T09:57:04;32.90;97.10
60701;DHT22;46541;49.894;10.886;2023-08-21T09:59:32;33.00;95.90
60701;DHT22;46541;49.894;10.886;2023-08-21T10:02:00;32.90;94.80
60701;DHT22;46541;49.894;10.886;2023-08-21T10:04:32;32.90;95.00
60701;DHT22;46541;49.894;10.886;2023-08-21T10:07:02;32.90;95.40
60701;DHT22;46541;49.894;10.886;2023-08-21T10:09:32;32.90;95.10
60701;DHT22;46541;49.894;10.886;2023-08-21T10:12:00;33.00;94.40
60701;DHT22;46541;49.894;10.886;2023-08-21T10:14:27;33.10;94.80
60701;DHT22;46541;49.894;10.886;2023-08-21T10:16:54;33.10;94.70
60701;DHT22;46541;49.894;10.886;2023-08-21T10:19:21;33.20;94.80
60701;DHT22;46541;49.894;10.886;2023-08-21T10:21:48;33.30;93.50
60701;DHT22;46541;49.894;10.886;2023-08-21T10:24:28;33.20;94.00
60701;DHT22;46541;49.894;10.886;2023-08-21T10:26:59;33.30;94.00
60701;DHT22;46541;49.894;10.886;2023-08-21T10:29:26;33.40;92.50
60701;DHT22;46541;49.894;10.886;2023-08-21T10:32:01;33.40;92.60
60701;DHT22;46541;49.894;10.886;2023-08-21T10:34:37;33.40;92.50
60701;DHT22;46541;49.894;10.886;2023-08-21T10:37:10;33.30;91.90
60701;DHT22;46541;49.894;10.886;2023-08-21T10:39:54;33.30;92.90
60701;DHT22;46541;49.894;10.886;2023-08-21T10:42:37;33.30;92.40
60701;DHT22;46541;49.894;10.886;2023-08-21T10:45:12;33.40;91.50
60701;DHT22;46541;49.894;10.886;2023-08-21T10:47:39;33.40;91.00
60701;DHT22;46541;49.894;10.886;2023-08-21T10:50:07;33.40;91.60
60701;DHT22;46541;49.894;10.886;2023-08-21T10:52:35;33.50;91.90
60701;DHT22;46541;49.894;10.886;2023-08-21T10:55:04;33.60;90.90
60701;DHT22;46541;49.894;10.886;2023-08-21T10:57:32;33.60;90.70
60701;DHT22;46541;49.894;10.886;2023-08-21T11:00:00;33.50;90.60
60701;DHT22;46541;49.894;10.886;2023-08-21T11:02:28;33.60;91.30
60701;DHT22;46541;49.894;10.886;2023-08-21T11:04:59;33.60;90.90
60701;DHT22;46541;49.894;10.886;2023-08-21T11:07:27;33.60;91.20
60701;DHT22;46541;49.894;10.886;2023-08-21T11:09:55;33.50;90.80
60701;DHT22;46541;49.894;10.886;2023-08-21T11:12:23;33.60;90.50
60701;DHT22;46541;49.894;10.886;2023-08-21T11:14:50;33.50;90.30
60701;DHT22;46541;49.894;10.886;2023-08-21T11:17:17;33.40;90.20
60701;DHT22;46541;49.894;10.886;2023-08-21T11:19:47;33.40;90.50
60701;DHT22;46541;49.894;10.886;2023-08-21T11:22:15;33.40;87.60
60701;DHT22;46541;49.894;10.886;2023-08-21T11:24:44;33.40;89.10
60701;DHT22;46541;49.894;10.886;2023-08-21T11:27:13;33.50;90.70
60701;DHT22;46541;49.894;10.886;2023-08-21T11:29:51;33.30;90.40
60701;DHT22;46541;49.894;10.886;2023-08-21T11:32:20;33.30;90.80
60701;DHT22;46541;49.894;10.886;2023-08-21T11:34:53;33.40;90.90
60701;DHT22;46541;49.894;10.886;2023-08-21T11:37:22;33.40;88.90
60701;DHT22;46541;49.894;10.886;2023-08-21T11:39:54;33.40;89.60
60701;DHT22;46541;49.894;10.886;2023-08-21T11:42:28;33.50;89.80
60701;DHT22;46541;49.894;10.886;2023-08-21T11:44:56;33.60;88.90
60701;DHT22;46541;49.894;10.886;2023-08-21T11:47:25;33.50;86.90
60701;DHT22;46541;49.894;10.886;2023-08-21T11:49:56;33.40;86.00
60701;DHT22;46541;49.894;10.886;2023-08-21T11:52:23;33.30;85.30
60701;DHT22;46541;49.894;10.886;2023-08-21T11:54:54;33.40;85.00
60701;DHT22;46541;49.894;10.886;2023-08-21T11:57:21;33.40;84.90
60701;DHT22;46541;49.894;10.886;2023-08-21T11:59:52;33.50;84.90
60701;DHT22;46541;49.894;10.886;2023-08-21T12:02:27;33.50;87.20
60701;DHT22;46541;49.894;10.886;2023-08-21T12:05:07;33.40;86.50
60701;DHT22;46541;49.894;10.886;2023-08-21T12:07:40;33.40;85.00
60701;DHT22;46541;49.894;10.886;2023-08-21T12:10:07;33.40;83.10
60701;DHT22;46541;49.894;10.886;2023-08-21T12:12:34;33.30;83.70
60701;DHT22;46541;49.894;10.886;2023-08-21T12:15:01;33.20;83.80
60701;DHT22;46541;49.894;10.886;2023-08-21T12:17:27;33.30;83.90
60701;DHT22;46541;49.894;10.886;2023-08-21T12:19:54;33.40;84.40
60701;DHT22;46541;49.894;10.886;2023-08-21T12:22:21;33.40;86.90
60701;DHT22;46541;49.894;10.886;2023-08-21T12:24:48;33.40;85.90
60701;DHT22;46541;49.894;10.886;2023-08-21T12:27:14;33.30;83.30
60701;DHT22;46541;49.894;10.886;2023-08-21T12:29:42;33.30;84.30
60701;DHT22;46541;49.894;10.886;2023-08-21T12:32:11;33.30;83.70
60701;DHT22;46541;49.894;10.886;2023-08-21T12:34:38;33.20;84.70
60701;DHT22;46541;49.894;10.886;2023-08-21T12:37:04;33.30;84.00
60701;DHT22;46541;49.894;10.886;2023-08-21T12:39:31;33.30;85.40
60701;DHT22;46541;49.894;10.886;2023-08-21T12:41:58;33.40;84.80
60701;DHT22;46541;49.894;10.886;2023-08-21T12:44:24;33.50;82.50
60701;DHT22;46541;49.894;10.886;2023-08-21T12:46:51;33.60;83.00
60701;DHT22;46541;49.894;10.886;2023-08-21T12:49:18;33.70;81.40
60701;DHT22;46541;49.894;10.886;2023-08-21T12:51:45;33.70;80.50
60701;DHT22;46541;49.894;10.886;2023-08-21T12:54:12;33.60;79.50
60701;DHT22;46541;49.894;10.886;2023-08-21T12:56:38;33.60;81.80
60701;DHT22;46541;49.894;10.886;2023-08-21T12:59:06;33.60;82.20
60701;DHT22;46541;49.894;10.886;2023-08-21T13:01:32;33.50;82.30
60701;DHT22;46541;49.894;10.886;2023-08-21T13:04:01;33.40;83.80
60701;DHT22;46541;49.894;10.886;2023-08-21T13:06:29;33.40;85.40
60701;DHT22;46541;49.894;10.886;2023-08-21T13:08:56;33.50;85.60
60701;DHT22;46541;49.894;10.886;2023-08-21T13:11:23;33.50;85.90
60701;DHT22;46541;49.894;10.886;2023-08-21T13:13:49;33.40;86.20
60701;DHT22;46541;49.894;10.886;2023-08-21T13:16:16;33.40;86.50
60701;DHT22;46541;49.894;10.886;2023-08-21T13:18:43;33.10;84.90
60701;DHT22;46541;49.894;10.886;2023-08-21T13:21:10;33.00;86.00
60701;DHT22;46541;49.894;10.886;2023-08-21T13:23:36;32.90;86.60
60701;DHT22;46541;49.894;10.886;2023-08-21T13:26:03;32.60;86.00
60701;DHT22;46541;49.894;10.886;2023-08-21T13:28:30;32.50;85.10
60701;DHT22;46541;49.894;10.886;2023-08-21T13:30:57;32.40;84.90
60701;DHT22;46541;49.894;10.886;2023-08-21T13:33:25;32.40;84.90
60701;DHT22;46541;49.894;10.886;2023-08-21T13:35:52;32.30;84.00
60701;DHT22;46541;49.894;10.886;2023-08-21T13:38:19;32.30;84.30
60701;DHT22;46541;49.894;10.886;2023-08-21T13:40:45;32.20;84.80
60701;DHT22;46541;49.894;10.886;2023-08-21T13:43:12;32.20;85.30
60701;DHT22;46541;49.894;10.886;2023-08-21T13:45:39;32.10;85.00
60701;DHT22;46541;49.894;10.886;2023-08-21T13:48:06;32.10;85.20
60701;DHT22;46541;49.894;10.886;2023-08-21T13:50:33;32.00;85.50
60701;DHT22;46541;49.894;10.886;2023-08-21T13:53:00;32.00;85.60
60701;DHT22;46541;49.894;10.886;2023-08-21T13:55:27;32.00;85.60
60701;DHT22;46541;49.894;10.886;2023-08-21T13:57:54;31.90;84.30
60701;DHT22;46541;49.894;10.886;2023-08-21T14:00:21;31.90;85.40
60701;DHT22;46541;49.894;10.886;2023-08-21T14:02:48;31.80;85.60
60701;DHT22;46541;49.894;10.886;2023-08-21T14:05:15;31.80;85.00
60701;DHT22;46541;49.894;10.886;2023-08-21T14:07:42;31.80;86.40
60701;DHT22;46541;49.894;10.886;2023-08-21T14:10:09;31.70;84.50
60701;DHT22;46541;49.894;10.886;2023-08-21T14:12:36;31.70;83.60
60701;DHT22;46541;49.894;10.886;2023-08-21T14:15:08;31.70;83.60
60701;DHT22;46541;49.894;10.886;2023-08-21T14:17:35;31.70;83.50
60701;DHT22;46541;49.894;10.886;2023-08-21T14:20:03;31.60;82.60
60701;DHT22;46541;49.894;10.886;2023-08-21T14:22:30;31.60;83.30
60701;DHT22;46541;49.894;10.886;2023-08-21T14:24:56;31.60;85.00
60701;DHT22;46541;49.894;10.886;2023-08-21T14:27:23;31.60;84.80
60701;DHT22;46541;49.894;10.886;2023-08-21T14:29:50;31.60;84.00
60701;DHT22;46541;49.894;10.886;2023-08-21T14:32:17;31.60;84.50
60701;DHT22;46541;49.894;10.886;2023-08-21T14:34:43;31.60;83.40
60701;DHT22;46541;49.894;10.886;2023-08-21T14:37:10;31.60;83.60
60701;DHT22;46541;49.894;10.886;2023-08-21T14:39:42;31.60;84.70
60701;DHT22;46541;49.894;10.886;2023-08-21T14:42:13;31.50;84.60
60701;DHT22;46541;49.894;10.886;2023-08-21T14:44:39;31.50;84.50
60701;DHT22;46541;49.894;10.886;2023-08-21T14:47:06;31.60;85.70
60701;DHT22;46541;49.894;10.886;2023-08-21T14:49:34;31.50;83.80
60701;DHT22;46541;49.894;10.886;2023-08-21T14:52:01;31.60;84.10
60701;DHT22;46541;49.894;10.886;2023-08-21T14:54:28;31.60;83.30
60701;DHT22;46541;49.894;10.886;2023-08-21T14:56:55;31.60;84.30
60701;DHT22;46541;49.894;10.886;2023-08-21T14:59:22;31.70;85.20
60701;DHT22;46541;49.894;10.886;2023-08-21T15:01:49;31.80;84.90
60701;DHT22;46541;49.894;10.886;2023-08-21T15:04:16;31.70;84.50
60701;DHT22;46541;49.894;10.886;2023-08-21T15:06:43;31.70;85.20
60701;DHT22;46541;49.894;10.886;2023-08-21T15:09:09;31.70;85.70
60701;DHT22;46541;49.894;10.886;2023-08-21T15:11:36;31.70;85.60
60701;DHT22;46541;49.894;10.886;2023-08-21T15:14:03;31.70;86.40
60701;DHT22;46541;49.894;10.886;2023-08-21T15:16:30;31.60;86.50
60701;DHT22;46541;49.894;10.886;2023-08-21T15:18:57;31.70;85.70
60701;DHT22;46541;49.894;10.886;2023-08-21T15:21:25;31.70;86.10